Time;durP1;ratioP1;P1;durP2;ratioP2;P2;SDS_P1;SDS_P2;PMS_P1;PMS_P2;Temp;Humidity;BMP_temperature;BMP_pressure;BME280_temperature;BME280_humidity;BME280_pressure;Samples;Min_cycle;Max_cycle;Signal;HPM_P1;HPM_P2
2021/05/09 00:01:59;;;;;;;297.63;266.57;;;;;;;;;;5079568;28;20453;-87
2021/05/09 00:04:37;;;;;;;299.00;267.30;;;;;;;;;;5078977;28;20423;-87
2021/05/09 00:07:46;;;;;;;286.13;255.60;;;11.80;98.00;;;;;;5079861;28;20935;-86
2021/05/09 00:13:49;;;;;;;285.10;254.80;;;;;;;;;;5080402;28;20414;-87
2021/05/09 00:16:40;;;;;;;295.53;265.40;;;;;;;;;;5082369;28;20426;-86
2021/05/09 00:19:33;;;;;;;280.50;249.80;;;11.90;99.90;;;;;;5082470;28;20527;-86
2021/05/09 00:22:02;;;;;;;302.77;268.57;;;;;;;;;;5071175;28;20447;-87
2021/05/09 00:24:53;;;;;;;294.90;264.93;;;;;;;;;;5079651;28;20606;-86
2021/05/09 00:27:30;;;;;;;312.37;259.50;;;;;;;;;;5082313;28;20931;-87
2021/05/09 00:30:11;;;;;;;298.17;266.90;;;;;;;;;;5080570;28;20482;-87
2021/05/09 00:32:40;;;;;;;312.43;266.27;;;;;;;;;;5085163;28;20795;-86
2021/05/09 00:35:12;;;;;;;337.47;270.03;;;;;;;;;;5086953;28;20445;-87
2021/05/09 00:37:39;;;;;;;296.97;258.23;;;;;;;;;;5088002;28;20475;-86
2021/05/09 00:40:17;;;;;;;312.53;274.23;;;;;;;;;;5091129;28;20496;-87
2021/05/09 00:43:07;;;;;;;308.10;273.17;;;11.90;99.90;;;;;;5096384;28;20455;-86
2021/05/09 00:45:39;;;;;;;295.67;266.17;;;;;;;;;;5093860;28;20471;-85
2021/05/09 00:48:09;;;;;;;298.97;266.77;;;11.70;98.70;;;;;;5092574;28;20479;-86
2021/05/09 00:50:45;;;;;;;304.77;273.43;;;;;;;;;;5092317;28;20431;-87
2021/05/09 00:53:41;;;;;;;298.83;267.73;;;11.70;99.10;;;;;;5091824;28;20425;-87
2021/05/09 01:01:49;;;;;;;281.50;251.83;;;;;;;;;;5093022;28;20512;-87
2021/05/09 01:04:17;;;;;;;306.87;263.10;;;11.70;99.90;;;;;;5093719;28;20440;-86
2021/05/09 01:06:46;;;;;;;321.73;275.53;;;11.80;99.90;;;;;;5092931;28;20451;-86
2021/05/09 01:09:12;;;;;;;301.93;266.70;;;;;;;;;;5094250;28;20495;-86
2021/05/09 01:11:39;;;;;;;321.63;282.37;;;;;;;;;;5095486;28;20471;-86
2021/05/09 01:14:08;;;;;;;311.00;276.90;;;11.80;99.90;;;;;;5095571;28;20429;-86
2021/05/09 01:16:34;;;;;;;293.37;263.60;;;;;;;;;;5091118;28;20527;-86
2021/05/09 01:19:01;;;;;;;300.53;271.53;;;;;;;;;;5099056;28;20426;-87
2021/05/09 01:21:28;;;;;;;296.50;268.03;;;;;;;;;;5095969;28;20424;-87
2021/05/09 01:23:55;;;;;;;301.47;270.97;;;;;;;;;;5085662;28;20549;-87
2021/05/09 01:26:21;;;;;;;279.47;252.60;;;11.80;99.90;;;;;;5084802;28;20440;-87
2021/05/09 01:28:47;;;;;;;295.07;264.17;;;11.90;99.90;;;;;;5083329;28;20464;-86
2021/05/09 01:31:14;;;;;;;284.80;257.80;;;;;;;;;;5084665;28;20500;-86
2021/05/09 01:33:40;;;;;;;296.90;267.60;;;11.70;99.90;;;;;;5085701;28;20423;-86
2021/05/09 01:36:06;;;;;;;278.73;253.43;;;11.80;99.90;;;;;;5084716;28;21034;-85
2021/05/09 01:38:33;;;;;;;286.33;259.43;;;11.90;99.90;;;;;;5091549;28;20444;-85
2021/05/09 01:41:00;;;;;;;285.10;257.77;;;;;;;;;;5083794;28;20514;-86
2021/05/09 01:43:26;;;;;;;282.50;256.57;;;11.80;99.90;;;;;;5081666;28;20481;-88
2021/05/09 01:45:52;;;;;;;311.17;270.93;;;11.60;99.90;;;;;;5079429;28;20456;-86
2021/05/09 01:48:18;;;;;;;309.10;275.33;;;;;;;;;;5078960;28;20464;-87
2021/05/09 01:50:45;;;;;;;295.60;263.50;;;;;;;;;;5078960;28;20458;-86
2021/05/09 01:53:11;;;;;;;292.10;265.43;;;11.80;99.90;;;;;;5078348;28;20483;-86
2021/05/09 01:55:38;;;;;;;321.67;277.53;;;11.30;99.90;;;;;;5077889;28;20441;-86
2021/05/09 01:58:04;;;;;;;322.70;280.83;;;11.80;99.90;;;;;;5079485;28;20464;-86
2021/05/09 02:00:30;;;;;;;290.60;263.97;;;11.80;99.90;;;;;;5080064;28;20455;-86
2021/05/09 02:02:56;;;;;;;298.73;263.70;;;12.00;99.90;;;;;;5081759;28;20434;-86
2021/05/09 02:05:22;;;;;;;303.63;273.60;;;11.80;99.90;;;;;;5086663;28;20411;-86
2021/05/09 02:07:48;;;;;;;304.77;271.43;;;11.70;99.90;;;;;;5096538;28;20384;-87
2021/05/09 02:10:15;;;;;;;296.93;264.33;;;;;;;;;;5095086;28;20446;-86
2021/05/09 02:12:42;;;;;;;308.17;275.10;;;11.70;99.90;;;;;;5085265;28;20445;-86
2021/05/09 02:15:10;;;;;;;294.93;265.97;;;11.80;99.90;;;;;;5086221;28;20443;-86
2021/05/09 02:17:36;;;;;;;324.53;272.23;;;11.70;99.90;;;;;;5088176;28;21058;-86
2021/05/09 02:21:07;;;;;;;321.97;269.57;;;11.80;99.90;;;;;;5112046;22;20488;-86
2021/05/09 02:23:34;;;;;;;308.00;244.37;;;;;;;;;;5071095;28;20465;-86
2021/05/09 02:26:02;;;;;;;314.13;263.47;;;;;;;;;;5106675;28;20448;-86
2021/05/09 02:28:30;;;;;;;307.43;256.67;;;;;;;;;;5105972;28;20494;-86
2021/05/09 02:30:56;;;;;;;324.30;263.73;;;;;;;;;;5103025;28;20475;-86
2021/05/09 02:33:23;;;;;;;319.87;268.73;;;;;;;;;;5102714;28;20452;-88
2021/05/09 02:35:49;;;;;;;329.00;262.33;;;11.70;99.90;;;;;;5100938;28;20439;-87
2021/05/09 02:38:15;;;;;;;327.53;263.90;;;11.70;99.90;;;;;;5100542;28;20471;-87
2021/05/09 02:40:41;;;;;;;341.50;266.87;;;12.40;99.90;;;;;;5102107;28;20442;-89
2021/05/09 02:43:08;;;;;;;327.30;261.27;;;;;;;;;;5100976;28;20950;-88
2021/05/09 02:45:35;;;;;;;333.10;267.47;;;;;;;;;;5101666;28;20814;-88
2021/05/09 02:48:01;;;;;;;314.23;276.07;;;11.80;99.90;;;;;;5112819;28;20439;-86
2021/05/09 02:50:27;;;;;;;308.07;255.13;;;11.70;99.90;;;;;;5114867;28;20476;-86
2021/05/09 02:52:53;;;;;;;294.93;260.00;;;11.70;99.90;;;;;;5105066;28;20447;-87
2021/05/09 02:55:19;;;;;;;297.33;253.83;;;11.80;99.90;;;;;;5101190;28;20459;-86
2021/05/09 02:57:46;;;;;;;299.03;266.03;;;11.50;99.90;;;;;;5101026;28;21011;-87
2021/05/09 03:00:13;;;;;;;318.67;261.67;;;11.70;99.90;;;;;;5101285;28;20432;-87
2021/05/09 03:02:40;;;;;;;313.20;262.13;;;11.50;99.90;;;;;;5101162;28;20452;-87
2021/05/09 03:05:07;;;;;;;315.00;253.37;;;11.70;99.90;;;;;;5101905;28;20517;-86
2021/05/09 03:07:33;;;;;;;390.70;248.60;;;11.70;99.90;;;;;;5102310;28;20463;-87
2021/05/09 03:10:00;;;;;;;319.50;253.60;;;;;;;;;;5106603;28;20484;-86
2021/05/09 03:12:26;;;;;;;320.13;256.40;;;11.60;99.90;;;;;;5101644;28;20436;-86
2021/05/09 03:14:52;;;;;;;308.53;262.30;;;11.50;99.90;;;;;;5101218;28;20462;-87
2021/05/09 03:17:18;;;;;;;300.20;258.40;;;;;;;;;;5100503;28;20444;-87
2021/05/09 03:19:45;;;;;;;291.53;262.33;;;11.60;99.90;;;;;;5100725;28;20459;-87
2021/05/09 03:22:11;;;;;;;303.07;272.07;;;11.50;99.90;;;;;;5101223;28;20425;-86
2021/05/09 03:24:38;;;;;;;313.50;268.27;;;;;;;;;;5100711;28;20439;-86
2021/05/09 03:27:05;;;;;;;287.50;254.13;;;11.30;99.90;;;;;;5100580;28;20474;-87
2021/05/09 03:29:31;;;;;;;288.37;245.53;;;11.20;99.90;;;;;;5100849;28;20521;-88
2021/05/09 03:31:57;;;;;;;300.00;255.83;;;11.10;99.90;;;;;;5100370;28;20486;-87
2021/05/09 03:34:23;;;;;;;288.50;257.30;;;11.20;99.90;;;;;;5099513;28;20419;-87
2021/05/09 03:36:50;;;;;;;289.13;258.37;;;11.10;99.90;;;;;;5098700;28;20446;-88
2021/05/09 03:39:16;;;;;;;283.37;254.37;;;;;;;;;;5099951;28;20463;-86
2021/05/09 03:41:42;;;;;;;295.03;263.63;;;11.10;99.90;;;;;;5099244;28;20444;-87
2021/05/09 03:44:09;;;;;;;281.90;250.30;;;11.10;99.90;;;;;;5098879;28;20414;-87
2021/05/09 03:46:35;;;;;;;290.30;248.17;;;11.10;99.90;;;;;;5098322;28;20831;-87
2021/05/09 03:49:01;;;;;;;286.63;247.93;;;11.10;99.90;;;;;;5097836;28;20467;-87
2021/05/09 03:51:27;;;;;;;293.57;258.53;;;;;;;;;;5099279;28;20501;-87
2021/05/09 03:53:54;;;;;;;278.90;252.30;;;11.10;99.90;;;;;;5099305;28;20454;-87
2021/05/09 03:56:20;;;;;;;374.58;346.05;;;11.10;99.90;;;;;;5098389;28;20440;-87
2021/05/09 03:58:46;;;;;;;302.10;276.73;;;;;;;;;;5099172;28;20251;-87
2021/05/09 04:01:13;;;;;;;286.93;258.63;;;;;;;;;;5099384;28;20441;-87
2021/05/09 04:03:39;;;;;;;522.30;484.30;;;10.30;99.90;;;;;;5098749;28;20918;-87
2021/05/09 04:06:06;;;;;;;390.67;321.00;;;11.10;99.90;;;;;;5104844;28;20213;-86
2021/05/09 04:08:32;;;;;;;386.43;286.23;;;11.10;99.90;;;;;;5106139;28;20471;-86
2021/05/09 04:11:00;;;;;;;380.43;284.53;;;11.10;99.90;;;;;;5104662;28;20529;-86
2021/05/09 04:13:27;;;;;;;352.33;278.03;;;;;;;;;;5108660;28;20443;-87
2021/05/09 04:15:53;;;;;;;310.57;259.67;;;11.20;99.90;;;;;;5123024;28;20458;-87
2021/05/09 04:18:19;;;;;;;358.07;270.47;;;11.20;99.90;;;;;;5122891;28;20463;-86
2021/05/09 04:20:45;;;;;;;335.30;252.50;;;11.30;99.90;;;;;;5122888;28;20447;-87
2021/05/09 04:23:13;;;;;;;351.27;271.63;;;11.30;99.90;;;;;;5123047;28;20436;-87
2021/05/09 04:25:41;;;;;;;374.70;244.97;;;11.40;99.90;;;;;;5122972;28;20420;-87
2021/05/09 04:28:08;;;;;;;398.67;249.70;;;11.20;99.90;;;;;;5122757;28;20443;-86
2021/05/09 04:30:35;;;;;;;405.83;231.30;;;11.30;99.90;;;;;;5122561;28;20490;-86
2021/05/09 04:33:03;;;;;;;359.30;233.70;;;11.20;99.90;;;;;;5110214;28;20585;-86
2021/05/09 04:35:30;;;;;;;356.00;255.70;;;11.30;99.90;;;;;;5105198;28;20447;-87
2021/05/09 04:37:56;;;;;;;408.93;234.27;;;11.20;99.90;;;;;;5104743;28;20475;-87
2021/05/09 04:40:22;;;;;;;401.23;233.47;;;11.10;99.90;;;;;;5105183;28;20443;-87
2021/05/09 04:42:48;;;;;;;407.77;235.17;;;11.30;99.90;;;;;;5111682;28;20427;-88
2021/05/09 04:45:16;;;;;;;409.50;221.65;;;11.30;99.90;;;;;;5118209;28;20446;-87
2021/05/09 04:47:42;;;;;;;407.15;222.77;;;11.40;99.90;;;;;;5120732;28;20182;-86
2021/05/09 04:50:10;;;;;;;428.27;299.63;;;11.50;99.90;;;;;;5120369;28;20562;-85
2021/05/09 04:52:36;;;;;;;434.48;320.88;;;11.40;99.90;;;;;;5120112;28;20420;-86
2021/05/09 04:55:03;;;;;;;418.33;260.13;;;11.60;99.90;;;;;;5120716;28;20202;-86
2021/05/09 04:57:31;;;;;;;421.07;253.13;;;11.50;99.90;;;;;;5122015;28;20189;-87
2021/05/09 04:59:57;;;;;;;416.63;253.80;;;11.60;99.90;;;;;;5122048;28;20480;-88
2021/05/09 05:02:24;;;;;;;423.47;255.93;;;11.70;99.90;;;;;;5121974;28;20455;-87
2021/05/09 05:04:50;;;;;;;419.73;253.27;;;11.80;99.90;;;;;;5121974;28;20420;-87
2021/05/09 05:07:16;;;;;;;416.98;252.73;;;11.80;99.90;;;;;;5121952;28;20420;-87
2021/05/09 05:09:42;;;;;;;415.70;243.02;;;11.80;99.90;;;;;;5110266;28;20222;-88
2021/05/09 05:12:09;;;;;;;424.17;277.50;;;11.80;99.90;;;;;;5105506;28;20225;-89
2021/05/09 05:14:35;;;;;;;423.00;264.67;;;11.90;99.90;;;;;;5104870;28;20497;-89
2021/05/09 05:17:02;;;;;;;411.67;261.43;;;12.00;99.90;;;;;;5104427;28;20443;-90
2021/05/09 05:19:29;;;;;;;397.30;257.07;;;12.00;99.90;;;;;;5103834;28;20479;-89
2021/05/09 05:21:55;;;;;;;386.00;269.60;;;;;;;;;;5107270;28;20428;-89
2021/05/09 05:24:21;;;;;;;363.33;265.63;;;12.20;99.90;;;;;;5115994;28;20427;-88
2021/05/09 05:26:48;;;;;;;379.27;271.57;;;12.20;99.90;;;;;;5108638;28;20443;-87
2021/05/09 05:29:14;;;;;;;385.03;266.70;;;12.40;99.90;;;;;;5106773;28;20962;-86
2021/05/09 05:31:41;;;;;;;401.70;273.87;;;12.40;99.90;;;;;;5108936;28;20527;-86
2021/05/09 05:34:07;;;;;;;383.77;271.40;;;12.50;99.90;;;;;;5106343;28;20435;-86
2021/05/09 05:36:34;;;;;;;360.30;281.93;;;12.70;99.90;;;;;;5103985;28;20938;-87
2021/05/09 05:39:00;;;;;;;378.97;278.03;;;12.70;99.90;;;;;;5104366;28;20526;-87
2021/05/09 05:41:26;;;;;;;332.33;292.67;;;12.80;99.90;;;;;;5103501;28;20443;-87
2021/05/09 05:43:52;;;;;;;414.00;285.93;;;12.90;99.90;;;;;;5107113;28;20444;-88
2021/05/09 05:46:18;;;;;;;403.37;294.73;;;13.10;99.90;;;;;;5103473;28;20814;-88
2021/05/09 05:48:45;;;;;;;402.00;315.00;;;13.20;99.90;;;;;;5102675;28;20471;-88
2021/05/09 05:51:11;;;;;;;443.23;397.77;;;12.30;99.90;;;;;;5103539;28;20440;-83
2021/05/09 05:53:39;;;;;;;668.20;615.27;;;13.90;99.90;;;;;;5108988;28;20530;-83
2021/05/09 05:56:06;;;;;;;443.43;369.00;;;13.60;99.90;;;;;;5104045;28;20448;-83
2021/05/09 05:58:32;;;;;;;437.63;334.13;;;13.70;99.90;;;;;;5104256;28;20475;-83
2021/05/09 06:00:58;;;;;;;437.63;333.00;;;13.60;99.90;;;;;;5103911;28;20440;-82
2021/05/09 06:03:24;;;;;;;437.47;318.20;;;13.70;99.90;;;;;;5103955;28;20443;-83
2021/05/09 06:05:50;;;;;;;422.53;342.07;;;14.00;99.90;;;;;;5103499;28;20424;-82
2021/05/09 06:08:17;;;;;;;422.67;337.70;;;13.70;99.90;;;;;;5103115;28;20468;-82
2021/05/09 06:10:44;;;;;;;429.70;316.33;;;13.90;99.90;;;;;;5102772;28;20501;-82
2021/05/09 06:13:10;;;;;;;418.17;335.30;;;13.90;99.90;;;;;;5103099;28;20470;-83
2021/05/09 06:15:36;;;;;;;420.17;334.73;;;13.90;99.90;;;;;;5111763;28;20462;-82
2021/05/09 06:18:02;;;;;;;435.13;319.90;;;14.10;99.90;;;;;;5114295;28;20464;-83
2021/05/09 06:20:29;;;;;;;422.43;330.80;;;14.10;99.90;;;;;;5112798;28;20447;-83
2021/05/09 06:22:58;;;;;;;421.00;332.80;;;14.70;99.90;;;;;;5110208;28;20455;-82
2021/05/09 06:25:25;;;;;;;438.80;343.70;;;14.30;99.90;;;;;;5102565;28;20450;-83
2021/05/09 06:27:52;;;;;;;414.47;335.30;;;14.50;99.90;;;;;;5100921;28;20451;-83
2021/05/09 06:30:19;;;;;;;402.17;330.40;;;14.30;99.90;;;;;;5105506;28;20975;-83
2021/05/09 06:32:46;;;;;;;610.13;558.45;;;14.30;99.90;;;;;;5101992;28;20437;-83
2021/05/09 06:35:12;;;;;;;742.45;688.60;;;14.60;99.90;;;;;;5101038;28;20437;-83
2021/05/09 06:37:39;;;;;;;488.53;437.53;;;14.20;99.90;;;;;;5104567;28;20209;-83
2021/05/09 06:40:07;;;;;;;464.33;424.37;;;14.40;99.90;;;;;;5103917;28;20476;-82
2021/05/09 06:42:34;;;;;;;419.13;378.53;;;14.60;99.90;;;;;;5106939;28;20448;-82
2021/05/09 06:45:06;;;;;;;618.88;576.33;;;14.40;99.90;;;;;;5108781;28;20459;-82
2021/05/09 06:47:33;;;;;;;466.50;423.60;;;15.00;99.90;;;;;;5103497;28;20202;-83
2021/05/09 06:50:00;;;;;;;435.63;392.53;;;14.40;99.90;;;;;;5102601;28;20456;-83
2021/05/09 06:52:27;;;;;;;409.77;368.03;;;;;;;;;;5103897;28;20489;-83
2021/05/09 06:54:54;;;;;;;411.67;370.77;;;14.60;99.90;;;;;;5103453;28;20479;-82
2021/05/09 06:57:21;;;;;;;415.63;371.87;;;14.60;99.90;;;;;;5103439;28;20471;-82
2021/05/09 06:59:48;;;;;;;419.30;375.70;;;14.90;99.90;;;;;;5111335;28;20467;-82
2021/05/09 07:02:16;;;;;;;483.85;436.77;;;14.00;99.90;;;;;;5115093;28;20425;-82
2021/05/09 07:04:42;;;;;;;719.13;666.53;;;13.70;99.90;;;;;;5107840;28;20444;-82
2021/05/09 07:07:09;;;;;;;502.00;454.03;;;14.40;99.90;;;;;;5104640;28;20197;-82
2021/05/09 07:09:38;;;;;;;477.17;433.77;;;14.90;99.90;;;;;;5101906;28;20534;-83
2021/05/09 07:12:06;;;;;;;436.30;390.03;;;15.70;99.90;;;;;;5101888;28;20468;-83
2021/05/09 07:14:33;;;;;;;534.30;485.45;;;15.20;99.90;;;;;;5105541;28;20859;-84
2021/05/09 07:17:00;;;;;;;472.30;425.03;;;15.40;99.90;;;;;;5103428;28;20206;-84
2021/05/09 07:19:28;;;;;;;479.07;433.10;;;15.60;99.90;;;;;;5102492;28;20493;-84
2021/05/09 07:21:57;;;;;;;472.73;426.73;;;14.90;99.90;;;;;;5105362;28;20494;-83
2021/05/09 07:24:24;;;;;;;456.93;411.43;;;15.30;99.90;;;;;;5103111;28;20463;-84
2021/05/09 07:26:51;;;;;;;470.00;429.83;;;15.90;99.90;;;;;;5100636;28;20455;-82
2021/05/09 07:29:17;;;;;;;469.50;425.27;;;15.90;99.90;;;;;;5101198;28;20450;-82
2021/05/09 07:31:44;;;;;;;469.57;424.23;;;16.10;99.90;;;;;;5099935;28;20479;-82
2021/05/09 07:34:13;;;;;;;434.80;389.13;;;;;;;;;;5113579;28;20486;-82
2021/05/09 07:36:41;;;;;;;464.00;414.80;;;16.10;99.90;;;;;;5111211;28;20790;-83
2021/05/09 07:39:08;;;;;;;437.50;396.57;;;16.20;99.90;;;;;;5098379;28;20474;-83
2021/05/09 07:41:35;;;;;;;469.37;428.30;;;;;;;;;;5099053;28;20495;-83
2021/05/09 07:44:04;;;;;;;477.03;433.87;;;16.50;99.90;;;;;;5099671;28;20461;-83
2021/05/09 07:46:31;;;;;;;482.93;438.53;;;17.00;99.90;;;;;;5099506;28;21001;-83
2021/05/09 08:04:31;;;;;;;492.10;458.90;;;17.30;99.90;;;;;;4985716;23;20569;-79
2021/05/09 08:06:57;;;;;;;514.43;470.03;;;17.30;99.90;;;;;;4969503;29;20202;-80
2021/05/09 08:09:24;;;;;;;542.20;501.53;;;17.40;99.90;;;;;;4969145;29;20446;-79
2021/05/09 08:11:50;;;;;;;541.17;500.70;;;17.50;99.90;;;;;;4968181;29;20441;-80
2021/05/09 08:14:17;;;;;;;533.03;495.40;;;17.50;99.90;;;;;;4969854;28;20481;-79
2021/05/09 08:16:44;;;;;;;531.73;494.13;;;17.60;99.90;;;;;;4969069;28;20476;-79
2021/05/09 08:19:10;;;;;;;535.07;492.17;;;17.60;99.90;;;;;;4968859;28;20417;-80
2021/05/09 08:21:36;;;;;;;524.50;479.67;;;17.70;99.90;;;;;;4967471;28;20421;-79
2021/05/09 08:24:02;;;;;;;544.33;505.73;;;17.80;99.90;;;;;;4968595;28;20538;-79
2021/05/09 08:26:31;;;;;;;552.47;514.10;;;18.00;99.90;;;;;;4965628;28;20504;-79
2021/05/09 08:28:57;;;;;;;548.50;504.10;;;18.10;99.90;;;;;;4970131;28;20429;-80
2021/05/09 08:31:23;;;;;;;572.10;530.97;;;18.30;99.90;;;;;;4971163;28;20486;-79
2021/05/09 08:33:50;;;;;;;580.93;542.27;;;18.20;99.90;;;;;;4970623;28;20448;-80
2021/05/09 08:36:16;;;;;;;586.93;541.33;;;18.40;99.90;;;;;;4973566;28;20445;-80
2021/05/09 08:38:43;;;;;;;574.73;531.77;;;18.30;99.90;;;;;;4972457;28;20457;-80
2021/05/09 08:41:09;;;;;;;579.07;533.90;;;18.30;99.90;;;;;;4969965;28;20446;-82
2021/05/09 08:43:36;;;;;;;600.33;554.83;;;18.40;99.90;;;;;;4968467;28;20444;-83
2021/05/09 08:46:02;;;;;;;604.80;558.20;;;18.40;99.90;;;;;;4965094;28;20447;-81
2021/05/09 08:48:31;;;;;;;598.23;553.20;;;18.60;99.90;;;;;;4965363;28;20429;-80
2021/05/09 08:50:58;;;;;;;593.47;549.57;;;18.60;99.90;;;;;;4964007;28;20859;-81
2021/05/09 08:53:25;;;;;;;610.30;566.30;;;18.70;99.90;;;;;;4968056;28;20444;-79
2021/05/09 08:55:51;;;;;;;615.47;572.37;;;18.80;99.90;;;;;;4975396;28;20406;-79
2021/05/09 08:58:17;;;;;;;612.17;568.23;;;18.80;99.90;;;;;;4975218;28;20439;-79
2021/05/09 09:00:43;;;;;;;590.13;547.20;;;18.90;99.90;;;;;;4974491;28;20444;-80
2021/05/09 09:03:13;;;;;;;601.13;562.97;;;19.00;99.90;;;;;;4983662;28;20473;-80
2021/05/09 09:05:40;;;;;;;623.07;583.53;;;18.90;99.90;;;;;;4995393;28;20995;-81
2021/05/09 09:08:08;;;;;;;639.97;592.57;;;19.10;99.90;;;;;;4993681;28;20409;-81
2021/05/09 09:10:37;;;;;;;637.57;590.57;;;19.10;99.90;;;;;;4992826;28;20515;-80
2021/05/09 09:13:18;;;;;;;577.43;543.63;;;19.10;99.90;;;;;;4986500;28;20466;-81
2021/05/09 09:15:51;;;;;;;625.80;585.03;;;19.30;99.90;;;;;;4988090;28;20436;-81
2021/05/09 09:18:35;;;;;;;622.87;584.27;;;19.40;99.90;;;;;;4991487;28;20448;-79
2021/05/09 09:21:26;;;;;;;636.10;592.57;;;19.50;99.90;;;;;;4990117;28;20432;-80
2021/05/09 09:23:54;;;;;;;631.00;591.00;;;19.60;99.90;;;;;;4991657;28;20446;-80
2021/05/09 09:26:32;;;;;;;634.43;596.33;;;19.60;99.90;;;;;;4992584;28;20443;-82
2021/05/09 09:28:59;;;;;;;646.87;604.30;;;19.70;99.90;;;;;;4992419;28;20521;-79
2021/05/09 09:31:39;;;;;;;631.30;592.90;;;19.70;99.90;;;;;;4992220;28;20463;-81
2021/05/09 09:34:05;;;;;;;653.07;609.27;;;;;;;;;;4992534;28;20479;-79
2021/05/09 09:36:31;;;;;;;611.43;580.63;;;19.80;99.90;;;;;;4993822;28;20453;-81
2021/05/09 09:38:58;;;;;;;654.17;614.70;;;19.90;99.90;;;;;;4992786;28;20458;-80
2021/05/09 09:41:25;;;;;;;636.23;600.53;;;20.00;99.90;;;;;;4989395;28;20444;-79
2021/05/09 09:44:07;;;;;;;639.37;602.27;;;20.10;99.90;;;;;;4989504;28;20463;-82
2021/05/09 09:46:34;;;;;;;646.50;608.83;;;20.10;99.90;;;;;;4986443;28;20654;-81
2021/05/09 09:49:01;;;;;;;676.90;632.23;;;20.20;99.90;;;;;;4984898;28;20444;-81
2021/05/09 09:51:28;;;;;;;699.80;651.80;;;20.40;99.90;;;;;;4982927;28;20485;-83
2021/05/09 09:53:56;;;;;;;687.23;640.27;;;20.40;99.90;;;;;;4980439;28;20472;-81
2021/05/09 09:56:25;;;;;;;696.23;648.07;;;20.40;99.90;;;;;;4979745;28;20466;-80
2021/05/09 09:58:54;;;;;;;688.30;643.90;;;20.40;99.90;;;;;;4983755;28;20436;-80
2021/05/09 10:01:23;;;;;;;675.47;636.13;;;20.60;99.90;;;;;;4981110;28;20447;-81
2021/05/09 10:03:51;;;;;;;667.93;629.70;;;20.70;99.90;;;;;;4981123;28;20560;-82
2021/05/09 10:06:17;;;;;;;654.27;621.17;;;20.60;99.90;;;;;;4982674;28;20456;-81
2021/05/09 10:08:44;;;;;;;658.27;624.97;;;20.80;99.90;;;;;;4980425;28;20510;-82
2021/05/09 10:11:10;;;;;;;701.63;655.37;;;20.90;99.90;;;;;;4981094;28;20501;-82
2021/05/09 10:13:37;;;;;;;699.17;655.80;;;21.00;99.90;;;;;;4980695;28;20515;-81
2021/05/09 10:16:05;;;;;;;686.47;644.57;;;21.00;99.90;;;;;;4979879;28;20456;-83
2021/05/09 10:18:33;;;;;;;687.37;646.63;;;20.90;99.90;;;;;;4978631;28;20445;-81
2021/05/09 10:20:59;;;;;;;674.27;637.77;;;21.00;99.90;;;;;;4980443;28;20468;-80
2021/05/09 10:23:25;;;;;;;686.77;645.50;;;20.90;99.90;;;;;;4979994;28;20452;-81
2021/05/09 10:25:54;;;;;;;686.97;647.90;;;21.10;99.90;;;;;;4977934;28;20457;-82
2021/05/09 10:28:22;;;;;;;703.27;660.93;;;21.30;99.90;;;;;;4978636;28;20462;-80
2021/05/09 10:30:52;;;;;;;684.27;647.50;;;21.50;99.90;;;;;;4987797;28;20484;-80
2021/05/09 10:33:44;;;;;;;652.37;620.83;;;21.30;99.90;;;;;;4992352;28;20474;-79
2021/05/09 10:36:27;;;;;;;689.60;648.60;;;21.30;99.90;;;;;;4989536;28;20441;-80
2021/05/09 10:39:17;;;;;;;690.97;649.80;;;21.40;99.90;;;;;;4985850;28;20449;-80
2021/05/09 10:42:18;;;;;;;688.83;649.03;;;21.40;99.90;;;;;;4983556;28;20438;-82
2021/05/09 10:44:48;;;;;;;677.97;641.20;;;21.50;99.90;;;;;;4982681;28;20551;-82
2021/05/09 10:47:30;;;;;;;679.80;642.23;;;21.50;99.90;;;;;;4982230;28;20505;-81
2021/05/09 10:50:24;;;;;;;684.57;647.67;;;21.30;99.90;;;;;;4981695;28;20446;-83
2021/05/09 10:52:52;;;;;;;698.13;659.13;;;21.60;99.90;;;;;;4980019;28;20469;-83
2021/05/09 10:55:38;;;;;;;708.90;669.13;;;21.50;99.90;;;;;;4979142;28;20442;-81
2021/05/09 10:58:04;;;;;;;719.27;674.10;;;20.80;99.90;;;;;;4982241;28;20449;-84
2021/05/09 11:01:15;;;;;;;752.27;703.57;;;21.80;99.90;;;;;;4981458;28;20499;-82
2021/05/09 11:03:53;;;;;;;740.27;690.80;;;21.80;99.90;;;;;;4983787;28;20487;-84
2021/05/09 11:06:21;;;;;;;730.40;685.00;;;21.50;99.90;;;;;;4983521;28;20440;-83
2021/05/09 11:08:59;;;;;;;738.70;690.50;;;21.90;99.90;;;;;;4983550;28;20441;-86
2021/05/09 11:12:00;;;;;;;728.97;688.07;;;22.10;99.90;;;;;;4980091;28;20480;-84
2021/05/09 11:14:26;;;;;;;722.80;669.90;;;22.30;99.90;;;;;;4979014;28;20522;-86
2021/05/09 11:17:03;;;;;;;744.50;691.93;;;22.40;99.90;;;;;;4980044;28;20502;-83
2021/05/09 11:19:43;;;;;;;751.00;701.03;;;22.00;98.00;;;;;;4981610;28;20433;-82
2021/05/09 11:22:10;;;;;;;744.33;693.93;;;22.20;99.90;;;;;;4984267;28;20432;-85
2021/05/09 11:24:38;;;;;;;743.07;695.37;;;22.20;98.80;;;;;;4983238;28;20454;-81
2021/05/09 11:27:10;;;;;;;736.80;691.30;;;21.80;99.90;;;;;;4982291;28;20461;-83
2021/05/09 11:29:39;;;;;;;746.77;696.67;;;22.20;94.90;;;;;;4980983;28;20435;-83
2021/05/09 11:32:10;;;;;;;743.90;697.40;;;22.40;99.90;;;;;;4979383;28;20804;-83
2021/05/09 11:34:38;;;;;;;753.43;703.30;;;22.50;99.90;;;;;;4982441;28;20504;-83
2021/05/09 11:37:05;;;;;;;750.73;701.73;;;22.00;99.90;;;;;;4979676;28;20424;-83
2021/05/09 11:39:39;;;;;;;730.40;682.20;;;22.50;99.90;;;;;;4981770;28;20464;-83
2021/05/09 11:42:11;;;;;;;750.90;700.90;;;21.80;99.90;;;;;;4982182;28;20903;-85
2021/05/09 11:44:41;;;;;;;750.70;701.50;;;22.60;95.40;;;;;;4980692;28;20434;-88
2021/05/09 11:47:10;;;;;;;734.97;688.60;;;22.80;99.90;;;;;;4981619;28;20447;-86
2021/05/09 11:49:38;;;;;;;748.83;702.73;;;21.50;99.90;;;;;;4984421;28;20456;-86
2021/05/09 11:52:06;;;;;;;748.63;707.50;;;22.40;99.20;;;;;;4979747;28;20482;-82
2021/05/09 11:54:35;;;;;;;734.27;694.07;;;22.50;99.90;;;;;;4980829;28;20461;-80
2021/05/09 11:57:02;;;;;;;769.60;721.67;;;23.10;99.90;;;;;;4980447;28;20472;-80
2021/05/09 11:59:40;;;;;;;756.40;712.73;;;22.80;99.90;;;;;;4981947;28;21002;-82
2021/05/09 12:02:25;;;;;;;768.50;723.50;;;22.90;94.60;;;;;;4989369;28;20434;-80
2021/05/09 12:05:14;;;;;;;768.67;725.70;;;22.90;93.80;;;;;;4984126;28;20536;-81
2021/05/09 12:07:44;;;;;;;770.77;725.60;;;23.00;91.90;;;;;;4979439;28;20938;-82
2021/05/09 12:10:14;;;;;;;773.50;729.63;;;23.20;99.90;;;;;;4977991;28;20464;-82
2021/05/09 12:12:41;;;;;;;769.73;726.90;;;23.40;87.60;;;;;;4978733;28;20483;-80
2021/05/09 12:15:12;;;;;;;779.30;732.63;;;23.40;96.50;;;;;;4977712;28;20450;-82
2021/05/09 12:17:47;;;;;;;797.13;749.10;;;23.30;97.90;;;;;;4979104;28;20465;-82
2021/05/09 12:20:24;;;;;;;780.23;736.83;;;;;;;;;;4978363;28;20428;-81
2021/05/09 12:22:51;;;;;;;782.17;738.87;;;;;;;;;;4982438;28;20461;-80
2021/05/09 12:25:28;;;;;;;785.80;741.77;;;23.20;95.90;;;;;;4976941;28;20458;-79
2021/05/09 12:27:54;;;;;;;728.70;694.00;;;;;;;;;;4979965;28;20858;-81
2021/05/09 12:30:24;;;;;;;789.60;746.97;;;;;;;;;;4982892;28;20472;-82
2021/05/09 12:32:53;;;;;;;724.40;689.50;;;;;;;;;;4986261;28;20483;-80
2021/05/09 12:35:19;;;;;;;701.63;669.03;;;23.20;97.90;;;;;;4984271;28;20959;-80
2021/05/09 12:38:01;;;;;;;766.80;727.17;;;23.30;97.70;;;;;;4983924;28;20450;-80
2021/05/09 12:40:32;;;;;;;756.53;717.30;;;23.20;99.90;;;;;;4979350;28;20489;-81
2021/05/09 12:43:19;;;;;;;777.23;733.80;;;23.00;96.00;;;;;;4984747;28;20479;-82
2021/05/09 12:45:47;;;;;;;770.47;729.47;;;23.10;97.60;;;;;;4986657;28;20422;-84
2021/05/09 12:48:16;;;;;;;667.40;636.90;;;23.20;97.90;;;;;;4985595;28;20823;-84
2021/05/09 12:50:50;;;;;;;708.73;675.13;;;23.20;97.70;;;;;;4989835;28;20456;-83
2021/05/09 12:53:39;;;;;;;771.13;729.57;;;23.30;97.30;;;;;;4994171;28;20468;-81
2021/05/09 12:56:24;;;;;;;763.83;724.23;;;23.20;97.40;;;;;;4995199;28;20438;-83
2021/05/09 12:59:23;;;;;;;761.90;723.20;;;23.30;98.60;;;;;;4995126;28;20437;-82
2021/05/09 13:02:01;;;;;;;766.60;727.90;;;23.70;86.00;;;;;;4995043;28;20448;-82